Portada
METAR-TAF:

METAR-TAF

Aeropuertos :

Aeropuerto de Ibiza

Ibiza, España

latitud: 38-52N, longitud: 001-23E, altitud: 7 m

Observación

El informe se hizo hace 46 minutos, a las 21:00 UTC
Viento 10 kt del oeste-suroeste
Temperatura 13°C
Humedad 88%
Presión 1005 hPa
Visibilidad 10 km o más
sin nubes por debajo de 1500 m y sin presencia de cumulonimbus.

METAR: LEIB 202100Z 25010KT CAVOK 13/11 Q1005 NOSIG

Hora: 22:46 (21:46 UTC)

Pronóstico

El informe se hizo hace 1 hora y 10 minutos, a las 20:36 UTC
Pronóstico válido del 20 a las 21 UTC al 21 a las 21 UTC
Viento 16 kt del oeste-suroeste
Visibilidad 10 km o más
Escasas nubes a una altura de 3000 ft
Temporalmente
del 20 a las 21 UTC al 20 a las 23 UTC
Viento 3 kt con dirección variable
Evolucionando progresivamente
del 21 a las 04 UTC al 21 a las 06 UTC
Viento 10 kt del oeste-suroeste

TAF: LEIB 202036Z 2021/2121 24016KT 9999 FEW030 TX19/2112Z TN13/2105Z TEMPO 2021/2023 VRB03KT BECMG 2104/2106 24010KT

Observaciones y pronósticos meteorológicos de más de 4000 aeropuertos (mensajes METAR y TAF).

Los puntos amarillos y rojos representan las estaciones disponibles.

Ponga el ratón en el punto deseado para ver el nombre de la estación.

Haga clic para ver las observaciones y los pronósticos meteorológicos.

Para cambiar el mapa : haga clic en los botones verdes con una cruz de color negro para hacer un zoom, en el botón verde con un guión para alejar o en las flechas verdes para mapas adyacentes.


METAR-TAF: